Time;durP1;ratioP1;P1;durP2;ratioP2;P2;SDS_P1;SDS_P2;PMS_P1;PMS_P2;Temp;Humidity;BMP_temperature;BMP_pressure;BME280_temperature;BME280_humidity;BME280_pressure;Samples;Min_cycle;Max_cycle;Signal;HPM_P1;HPM_P2
2022/09/28 00:00:53;;;;;;;0.47;0.20;;;23.10;60.90;;;;;;6118105;28;19922;-59
2022/09/28 00:03:57;;;;;;;0.15;0.10;;;23.00;60.70;;;;;;6117145;28;22728;-57
2022/09/28 00:06:59;;;;;;;0.20;0.20;;;23.00;60.80;;;;;;6117847;28;20051;-59
2022/09/28 00:10:00;;;;;;;;;;;23.20;60.90;;;;;;6119330;28;20043;-59
2022/09/28 00:13:02;;;;;;;0.70;0.20;;;22.70;60.70;;;;;;6118353;28;19930;-60
2022/09/28 00:16:07;;;;;;;0.30;0.20;;;23.20;60.90;;;;;;6119465;28;20099;-59
2022/09/28 00:19:10;;;;;;;0.30;0.20;;;23.20;60.90;;;;;;6118594;28;20043;-59
2022/09/28 00:22:11;;;;;;;0.20;0.20;;;22.80;60.70;;;;;;6120311;28;20034;-59
2022/09/28 00:25:12;;;;;;;;;;;22.80;60.70;;;;;;6120692;28;20098;-57
2022/09/28 00:28:14;;;;;;;0.20;0.15;;;23.10;60.90;;;;;;6114534;28;20713;-59
2022/09/28 00:31:16;;;;;;;0.20;0.20;;;23.00;60.80;;;;;;6118205;28;20112;-59
2022/09/28 00:34:21;;;;;;;1.27;0.20;;;22.90;60.80;;;;;;6119349;28;21003;-60
2022/09/28 00:37:23;;;;;;;0.93;0.30;;;22.90;60.80;;;;;;6118552;28;20055;-59
2022/09/28 00:40:24;;;;;;;0.55;0.20;;;22.90;60.90;;;;;;6116429;28;20082;-58
2022/09/28 00:43:27;;;;;;;1.25;0.50;;;22.90;60.80;;;;;;6119675;28;20086;-59
2022/09/28 00:46:33;;;;;;;0.57;0.30;;;22.90;60.80;;;;;;6109724;28;20106;-53
2022/09/28 00:49:43;;;;;;;0.40;0.22;;;23.10;61.00;;;;;;6111616;28;20347;-55
2022/09/28 00:52:48;;;;;;;0.65;0.30;;;23.00;60.90;;;;;;6112965;28;20348;-56
2022/09/28 00:55:53;;;;;;;1.20;0.30;;;23.10;60.90;;;;;;6111895;28;20426;-59
2022/09/28 00:58:58;;;;;;;1.60;0.50;;;23.10;61.00;;;;;;6107382;28;20086;-56
2022/09/28 01:02:00;;;;;;;0.93;0.40;;;23.10;61.00;;;;;;6114564;28;20162;-55
2022/09/28 01:05:04;;;;;;;1.95;0.60;;;22.80;60.80;;;;;;6111466;28;21001;-56
2022/09/28 01:08:07;;;;;;;1.10;0.43;;;22.60;60.70;;;;;;6115285;28;20410;-57
2022/09/28 01:11:09;;;;;;;1.65;0.52;;;23.10;61.00;;;;;;6115566;28;20054;-58
2022/09/28 01:14:14;;;;;;;1.90;0.60;;;22.80;60.90;;;;;;6105264;28;20350;-57
2022/09/28 01:17:21;;;;;;;1.48;0.40;;;23.00;60.90;;;;;;6110976;28;20058;-55
2022/09/28 01:20:48;;;;;;;0.90;0.30;;;23.10;61.00;;;;;;6111261;28;20051;-57
2022/09/28 01:24:08;;;;;;;1.05;0.40;;;22.70;60.90;;;;;;6112048;28;20039;-56
2022/09/28 01:27:14;;;;;;;1.25;0.47;;;23.20;61.10;;;;;;6112801;28;20406;-59
2022/09/28 01:30:18;;;;;;;2.08;0.73;;;22.90;60.90;;;;;;6109767;28;20045;-57
2022/09/28 01:33:23;;;;;;;1.27;0.40;;;23.00;61.00;;;;;;6112950;28;20495;-56
2022/09/28 01:36:35;;;;;;;1.65;0.65;;;23.00;61.00;;;;;;6111633;28;20258;-55
2022/09/28 01:39:42;;;;;;;1.35;0.60;;;23.20;61.10;;;;;;6109808;28;20326;-58
2022/09/28 01:42:49;;;;;;;3.25;0.50;;;23.10;61.10;;;;;;6110075;28;20043;-58
2022/09/28 01:45:54;;;;;;;1.40;0.65;;;23.20;61.10;;;;;;6109011;28;20529;-56
2022/09/28 01:48:57;;;;;;;1.40;0.60;;;22.80;60.90;;;;;;6109059;28;20500;-57
2022/09/28 01:52:03;;;;;;;2.00;0.60;;;23.00;61.00;;;;;;6111358;28;20137;-58
2022/09/28 01:55:10;;;;;;;1.63;0.50;;;22.90;60.90;;;;;;6108813;28;20177;-58
2022/09/28 01:58:17;;;;;;;1.70;0.35;;;22.90;60.90;;;;;;6108919;28;20057;-56
2022/09/28 02:01:27;;;;;;;1.75;0.50;;;23.10;61.00;;;;;;6106959;28;20050;-55
2022/09/28 02:04:33;;;;;;;2.00;0.52;;;23.00;61.00;;;;;;6105431;28;20077;-58
2022/09/28 02:07:39;;;;;;;1.35;0.40;;;22.50;60.70;;;;;;6108608;28;20198;-59
2022/09/28 02:10:47;;;;;;;1.08;0.45;;;22.90;60.90;;;;;;6110065;28;20391;-55
2022/09/28 02:13:54;;;;;;;1.27;0.50;;;22.70;60.70;;;;;;6109188;28;20652;-55
2022/09/28 02:16:57;;;;;;;1.95;0.70;;;23.00;60.90;;;;;;6109545;28;20890;-56
2022/09/28 02:20:01;;;;;;;1.05;0.43;;;23.00;60.90;;;;;;6109167;28;20426;-56
2022/09/28 02:23:04;;;;;;;1.58;0.60;;;23.10;60.90;;;;;;6109722;28;20039;-58
2022/09/28 02:26:11;;;;;;;0.57;0.20;;;22.90;60.80;;;;;;6115128;28;20054;-56
2022/09/28 02:29:13;;;;;;;0.60;0.20;;;23.00;61.40;;;;;;6113003;28;20656;-56
2022/09/28 02:32:15;;;;;;;1.13;0.40;;;22.70;60.60;;;;;;6116309;28;20081;-56
2022/09/28 02:35:20;;;;;;;0.85;0.40;;;23.00;60.60;;;;;;6117550;28;20258;-56
2022/09/28 02:38:22;;;;;;;2.15;0.50;;;22.90;60.50;;;;;;6115864;28;20046;-59
2022/09/28 02:41:35;;;;;;;0.60;0.30;;;23.00;60.50;;;;;;6126917;28;20051;-59
2022/09/28 02:44:49;;;;;;;1.67;0.35;;;22.80;60.20;;;;;;6123647;28;20901;-58
2022/09/28 02:48:02;;;;;;;0.65;0.30;;;23.00;60.20;;;;;;6114853;28;20511;-56
2022/09/28 02:51:15;;;;;;;1.10;0.28;;;23.00;60.00;;;;;;6122283;28;20058;-58
2022/09/28 02:54:31;;;;;;;0.50;0.20;;;23.00;60.60;;;;;;6122753;28;20047;-58
2022/09/28 02:57:47;;;;;;;0.70;0.20;;;22.50;59.60;;;;;;6113547;28;20084;-57
2022/09/28 03:00:55;;;;;;;0.43;0.20;;;22.70;59.50;;;;;;6115138;28;20047;-57
2022/09/28 03:04:03;;;;;;;0.85;0.35;;;22.90;59.50;;;;;;6122225;28;20169;-59
2022/09/28 03:07:09;;;;;;;0.57;0.22;;;22.90;59.30;;;;;;6124282;28;20050;-58
2022/09/28 03:10:18;;;;;;;0.40;0.20;;;22.70;59.10;;;;;;6119391;28;20059;-59
2022/09/28 03:13:20;;;;;;;0.22;0.20;;;22.90;59.00;;;;;;6123766;28;20811;-62
2022/09/28 03:16:23;;;;;;;2.40;0.30;;;22.90;58.90;;;;;;6123720;28;20059;-60
2022/09/28 03:19:29;;;;;;;1.27;0.30;;;22.80;58.80;;;;;;6125214;28;20904;-60
2022/09/28 03:22:30;;;;;;;0.57;0.30;;;22.90;58.80;;;;;;6120724;28;20796;-58
2022/09/28 03:25:32;;;;;;;0.80;0.10;;;22.60;58.70;;;;;;6113567;28;20438;-52
2022/09/28 03:28:35;;;;;;;0.98;0.20;;;23.00;58.80;;;;;;6110729;28;20063;-59
2022/09/28 03:31:37;;;;;;;1.58;0.20;;;23.00;58.70;;;;;;6111015;28;20054;-59
2022/09/28 03:34:39;;;;;;;0.30;0.20;;;23.10;58.70;;;;;;6110657;28;20038;-59
2022/09/28 03:37:40;;;;;;;;;;;23.10;58.60;;;;;;6117997;28;20054;-59
2022/09/28 03:40:42;;;;;;;;;;;22.90;58.60;;;;;;6119924;28;19926;-58
2022/09/28 03:43:43;;;;;;;;;;;22.90;58.50;;;;;;6122468;28;19927;-58
2022/09/28 03:46:48;;;;;;;0.38;0.10;;;23.00;58.70;;;;;;6120917;28;19925;-59
2022/09/28 03:49:50;;;;;;;0.55;0.13;;;23.00;58.40;;;;;;6122134;28;20050;-58
2022/09/28 03:52:51;;;;;;;;;;;22.70;58.10;;;;;;6122330;28;20153;-58
2022/09/28 03:55:56;;;;;;;0.30;0.00;;;22.60;58.10;;;;;;6121464;28;19938;-59
2022/09/28 03:58:57;;;;;;;0.20;0.20;;;22.80;58.10;;;;;;6122615;28;20055;-58
2022/09/28 04:02:00;;;;;;;0.22;0.10;;;22.90;57.90;;;;;;6110720;28;20432;-55
2022/09/28 04:05:02;;;;;;;0.30;0.20;;;23.00;57.80;;;;;;6114809;28;21089;-58
2022/09/28 04:08:04;;;;;;;0.52;0.20;;;22.80;57.60;;;;;;6111825;28;20046;-58
2022/09/28 04:11:05;;;;;;;0.13;0.13;;;22.80;57.40;;;;;;6117611;28;20039;-57
2022/09/28 04:14:08;;;;;;;0.60;0.30;;;22.40;57.10;;;;;;6120539;28;20778;-56
2022/09/28 04:17:10;;;;;;;0.38;0.20;;;22.80;57.20;;;;;;6117617;28;20055;-57
2022/09/28 04:20:12;;;;;;;0.68;0.30;;;22.40;56.90;;;;;;6119493;28;20047;-58
2022/09/28 04:23:20;;;;;;;0.32;0.20;;;23.20;57.20;;;;;;6120906;28;20047;-58
2022/09/28 04:26:23;;;;;;;0.57;0.30;;;22.90;57.00;;;;;;6119347;28;20113;-57
2022/09/28 04:29:25;;;;;;;0.55;0.22;;;22.60;56.80;;;;;;6118392;28;20046;-58
2022/09/28 04:32:30;;;;;;;0.40;0.20;;;22.50;56.70;;;;;;6119749;28;20054;-58
2022/09/28 04:35:32;;;;;;;0.22;0.20;;;22.60;56.70;;;;;;6115536;28;20078;-59
2022/09/28 04:38:33;;;;;;;0.50;0.20;;;22.90;56.80;;;;;;6131589;28;21013;-59
2022/09/28 04:41:54;;;;;;;0.65;0.13;;;23.00;56.70;;;;;;6112725;28;20053;-56
2022/09/28 04:44:57;;;;;;;0.98;0.30;;;23.00;56.70;;;;;;6108527;28;20137;-58
2022/09/28 04:47:59;;;;;;;0.88;0.20;;;22.80;56.50;;;;;;6106539;28;20826;-57
2022/09/28 04:51:20;;;;;;;0.60;0.20;;;22.70;56.40;;;;;;6107046;28;20405;-57
2022/09/28 04:54:21;;;;;;;0.60;0.20;;;22.80;56.40;;;;;;6105764;28;20960;-55
2022/09/28 04:57:26;;;;;;;0.73;0.20;;;23.00;56.50;;;;;;6101190;28;20094;-58
2022/09/28 05:00:32;;;;;;;1.02;0.32;;;23.10;56.50;;;;;;6097657;28;20157;-59
2022/09/28 05:03:42;;;;;;;0.60;0.20;;;22.90;56.30;;;;;;6105637;28;20054;-57
2022/09/28 05:06:56;;;;;;;0.28;0.17;;;22.50;56.00;;;;;;6097251;28;20350;-55
2022/09/28 05:10:00;;;;;;;0.90;0.57;;;22.70;56.10;;;;;;6104472;28;20074;-54
2022/09/28 05:13:02;;;;;;;0.43;0.20;;;22.60;56.00;;;;;;6105345;28;20907;-56
2022/09/28 05:16:04;;;;;;;0.45;0.30;;;22.90;56.10;;;;;;6108022;28;20781;-54
2022/09/28 05:19:13;;;;;;;0.30;0.10;;;22.70;55.90;;;;;;6110699;28;20043;-58
2022/09/28 05:22:15;;;;;;;0.68;0.30;;;22.50;55.70;;;;;;6106312;28;20507;-59
2022/09/28 05:25:20;;;;;;;0.30;0.20;;;22.50;55.80;;;;;;6106807;28;20035;-58
2022/09/28 05:28:35;;;;;;;0.25;0.20;;;22.90;55.90;;;;;;6113245;28;20066;-58
2022/09/28 05:31:50;;;;;;;0.38;0.20;;;22.80;55.80;;;;;;6109565;28;20932;-56
2022/09/28 05:35:06;;;;;;;0.20;0.20;;;22.50;55.60;;;;;;6110752;28;20162;-58
2022/09/28 05:38:15;;;;;;;0.20;0.15;;;22.50;55.50;;;;;;6112126;28;20050;-59
2022/09/28 05:41:17;;;;;;;0.22;0.20;;;22.70;55.60;;;;;;6109412;28;20071;-58
2022/09/28 05:44:19;;;;;;;0.20;0.20;;;22.80;55.60;;;;;;6107326;28;20060;-59
2022/09/28 05:47:24;;;;;;;0.20;0.20;;;22.40;55.40;;;;;;6110338;28;20134;-58
2022/09/28 05:50:26;;;;;;;0.65;0.20;;;22.70;55.50;;;;;;6104175;28;20042;-58
2022/09/28 05:53:28;;;;;;;0.30;0.28;;;22.70;55.50;;;;;;6105560;28;20042;-58
2022/09/28 05:56:31;;;;;;;0.28;0.10;;;22.90;55.50;;;;;;6101353;28;20055;-59
2022/09/28 05:59:34;;;;;;;0.57;0.30;;;22.60;55.30;;;;;;6095366;28;20061;-58
2022/09/28 06:02:36;;;;;;;0.28;0.20;;;22.50;55.20;;;;;;6102739;28;21089;-58
2022/09/28 06:05:40;;;;;;;0.20;0.10;;;22.60;55.30;;;;;;6107607;28;20063;-59
2022/09/28 06:08:45;;;;;;;0.40;0.20;;;22.80;55.30;;;;;;6094852;28;20984;-58
2022/09/28 06:12:01;;;;;;;0.75;0.20;;;22.50;55.30;;;;;;6085663;28;20057;-56
2022/09/28 06:15:12;;;;;;;0.45;0.22;;;22.50;55.30;;;;;;6093992;28;21198;-59
2022/09/28 06:18:14;;;;;;;0.30;0.20;;;22.80;55.40;;;;;;6092213;28;20046;-58
2022/09/28 06:21:26;;;;;;;0.30;0.10;;;22.40;55.10;;;;;;6076822;28;20059;-59
2022/09/28 06:24:28;;;;;;;0.17;0.17;;;22.90;55.40;;;;;;6077616;28;20081;-59
2022/09/28 06:27:29;;;;;;;0.47;0.25;;;22.50;55.20;;;;;;6075785;28;20895;-58
2022/09/28 06:30:33;;;;;;;0.80;0.17;;;22.80;55.40;;;;;;6069460;28;20058;-58
2022/09/28 06:33:37;;;;;;;0.25;0.20;;;22.40;55.20;;;;;;6059298;28;20055;-59
2022/09/28 06:36:40;;;;;;;0.28;0.20;;;22.50;55.50;;;;;;6050292;28;20105;-59
2022/09/28 06:39:43;;;;;;;1.30;0.10;;;22.70;55.40;;;;;;6052114;28;20046;-59
2022/09/28 06:42:53;;;;;;;0.20;0.10;;;22.40;55.30;;;;;;6056393;28;20043;-59
2022/09/28 06:46:15;;;;;;;0.47;0.10;;;22.70;55.40;;;;;;6020568;28;20050;-60
2022/09/28 06:49:36;;;;;;;;;;;22.70;55.50;;;;;;6042811;28;20054;-59
2022/09/28 06:52:53;;;;;;;1.13;0.10;;;22.60;55.60;;;;;;6040040;28;19992;-58
2022/09/28 06:56:14;;;;;;;0.68;0.20;;;22.80;55.60;;;;;;6008914;28;21315;-59
2022/09/28 06:59:16;;;;;;;0.30;0.13;;;22.80;55.60;;;;;;5984257;28;21234;-59
2022/09/28 07:02:19;;;;;;;0.22;0.22;;;22.90;55.70;;;;;;6000778;28;20149;-60
2022/09/28 07:05:40;;;;;;;0.38;0.20;;;22.40;55.40;;;;;;5975925;28;20938;-59
2022/09/28 07:08:55;;;;;;;0.70;0.20;;;22.70;55.50;;;;;;5969928;28;20055;-59
2022/09/28 07:12:31;;;;;;;1.08;0.50;;;22.90;55.50;;;;;;5925256;28;20054;-56
2022/09/28 07:15:36;;;;;;;1.17;0.20;;;22.70;55.50;;;;;;5913988;28;20112;-55
2022/09/28 07:18:39;;;;;;;0.98;0.35;;;22.60;55.60;;;;;;5972053;28;20915;-58
2022/09/28 07:21:40;;;;;;;1.10;0.13;;;22.90;56.20;;;;;;5984738;28;20043;-57
2022/09/28 07:24:43;;;;;;;0.10;0.10;;;23.00;55.80;;;;;;5951298;28;20043;-53
2022/09/28 07:28:01;;;;;;;0.50;0.10;;;23.20;55.90;;;;;;5981962;28;20055;-54
2022/09/28 07:31:12;;;;;;;0.63;0.20;;;22.80;55.60;;;;;;5938370;28;20138;-55
2022/09/28 07:34:30;;;;;;;0.10;0.10;;;22.80;55.60;;;;;;5867292;28;24526;-50
2022/09/28 07:37:38;;;;;;;0.28;0.15;;;22.60;55.60;;;;;;5880238;28;20130;-58
2022/09/28 07:44:04;;;;;;;1.38;0.25;;;22.90;55.90;;;;;;5835984;28;31560;-57
2022/09/28 07:47:08;;;;;;;0.82;0.22;;;22.70;55.90;;;;;;5876462;28;20047;-56
2022/09/28 07:50:29;;;;;;;;;;;22.50;55.90;;;;;;5888966;28;21610;-56
2022/09/28 07:53:37;;;;;;;1.17;0.15;;;23.00;56.20;;;;;;5890105;28;20278;-54
2022/09/28 07:56:50;;;;;;;1.63;0.20;;;23.10;56.10;;;;;;5919579;28;21368;-56
2022/09/28 08:00:11;;;;;;;0.40;0.25;;;23.20;56.20;;;;;;5861204;28;20074;-59
2022/09/28 08:03:18;;;;;;;0.35;0.20;;;23.10;56.10;;;;;;5833740;28;20265;-57
2022/09/28 08:06:20;;;;;;;0.40;0.20;;;23.00;56.20;;;;;;5843182;28;23934;-58
2022/09/28 08:09:22;;;;;;;0.98;0.43;;;23.20;56.10;;;;;;5852902;28;20260;-59
2022/09/28 08:12:46;;;;;;;0.40;0.30;;;22.80;55.90;;;;;;5840908;28;21497;-59
2022/09/28 08:16:07;;;;;;;0.93;0.22;;;23.20;56.00;;;;;;5885970;28;20050;-59
2022/09/28 08:19:24;;;;;;;0.55;0.30;;;23.00;55.80;;;;;;5925694;28;20062;-57
2022/09/28 08:22:30;;;;;;;0.43;0.30;;;22.90;55.60;;;;;;5902566;28;20051;-54
2022/09/28 08:25:37;;;;;;;1.05;0.30;;;22.90;55.60;;;;;;5886333;28;20055;-55
2022/09/28 08:28:41;;;;;;;0.40;0.20;;;23.30;55.70;;;;;;5922415;28;20086;-56
2022/09/28 08:32:05;;;;;;;0.40;0.22;;;23.20;55.60;;;;;;5879897;28;38910;-55
2022/09/28 08:35:15;;;;;;;1.55;0.30;;;23.30;55.50;;;;;;5873872;28;20173;-54
2022/09/28 08:38:28;;;;;;;0.45;0.20;;;23.30;55.40;;;;;;5898253;28;21610;-55
2022/09/28 08:42:01;;;;;;;1.63;0.30;;;23.30;55.40;;;;;;5860244;28;20780;-56
2022/09/28 08:45:21;;;;;;;0.50;0.20;;;23.40;55.30;;;;;;5904863;28;23682;-55
2022/09/28 08:48:47;;;;;;;2.92;0.40;;;23.50;55.30;;;;;;5869844;28;20054;-56
2022/09/28 08:52:25;;;;;;;1.75;0.38;;;23.50;55.00;;;;;;5887676;28;20062;-54
2022/09/28 08:55:36;;;;;;;1.55;0.30;;;23.40;54.90;;;;;;5897778;28;21324;-59
2022/09/28 08:58:42;;;;;;;0.68;0.20;;;23.30;54.60;;;;;;5900172;28;20035;-59
2022/09/28 09:01:54;;;;;;;0.57;0.20;;;23.30;54.50;;;;;;5905380;28;20137;-59
2022/09/28 09:05:02;;;;;;;0.40;0.20;;;23.40;54.60;;;;;;5888113;28;26998;-58
2022/09/28 09:08:38;;;;;;;0.52;0.25;;;23.50;54.40;;;;;;5862553;28;22012;-57
2022/09/28 09:11:51;;;;;;;0.75;0.10;;;23.30;54.00;;;;;;5893045;28;20058;-58
2022/09/28 09:15:10;;;;;;;0.38;0.30;;;23.40;53.90;;;;;;5911609;28;20054;-59
2022/09/28 09:18:24;;;;;;;0.55;0.40;;;23.50;53.90;;;;;;5908784;28;20049;-57
2022/09/28 09:21:40;;;;;;;1.10;0.20;;;23.20;53.80;;;;;;5903337;28;20137;-59
2022/09/28 09:24:48;;;;;;;0.85;0.25;;;23.40;53.70;;;;;;5839993;28;20141;-59
2022/09/28 09:28:08;;;;;;;0.30;0.20;;;23.60;53.60;;;;;;5839907;28;21198;-56
2022/09/28 09:31:25;;;;;;;0.57;0.20;;;23.40;53.30;;;;;;5871268;28;22509;-56
2022/09/28 09:34:54;;;;;;;0.83;0.13;;;23.20;53.30;;;;;;5915823;28;20046;-54
2022/09/28 09:38:31;;;;;;;1.75;0.40;;;23.20;53.20;;;;;;5900978;28;20051;-58
2022/09/28 09:42:09;;;;;;;0.32;0.20;;;23.30;53.10;;;;;;5901556;28;20050;-59
2022/09/28 09:45:47;;;;;;;0.20;0.20;;;22.90;52.80;;;;;;5919118;28;20075;-56
2022/09/28 09:49:12;;;;;;;0.52;0.25;;;23.50;53.00;;;;;;5940167;28;20051;-54
2022/09/28 09:52:20;;;;;;;0.40;0.20;;;23.50;52.80;;;;;;5940055;28;20779;-55
2022/09/28 09:55:26;;;;;;;0.43;0.20;;;23.50;52.80;;;;;;5922903;28;20050;-54
2022/09/28 09:58:53;;;;;;;1.45;0.28;;;23.50;52.70;;;;;;5947776;28;20734;-53
2022/09/28 10:02:07;;;;;;;0.45;0.20;;;23.40;52.70;;;;;;5933987;28;20078;-53
2022/09/28 10:05:30;;;;;;;0.73;0.20;;;23.60;52.80;;;;;;5954034;28;20057;-56
2022/09/28 10:08:38;;;;;;;0.30;0.30;;;23.60;52.80;;;;;;5962509;28;21633;-54
2022/09/28 10:11:43;;;;;;;0.52;0.15;;;23.60;52.80;;;;;;5937323;28;20047;-54
2022/09/28 10:14:48;;;;;;;0.57;0.20;;;23.60;52.60;;;;;;5952347;28;20057;-55
2022/09/28 10:17:51;;;;;;;0.20;0.20;;;23.60;52.60;;;;;;5937794;28;20043;-52
2022/09/28 10:21:12;;;;;;;0.95;0.17;;;23.40;52.30;;;;;;5930387;28;20856;-56
2022/09/28 10:24:31;;;;;;;0.30;0.20;;;23.60;52.30;;;;;;5933608;28;20256;-59
2022/09/28 10:27:34;;;;;;;0.60;0.38;;;23.60;52.30;;;;;;5966930;28;20097;-55
2022/09/28 10:30:43;;;;;;;0.15;0.15;;;23.60;52.30;;;;;;5942876;28;20085;-55
2022/09/28 10:33:45;;;;;;;1.15;0.20;;;23.60;52.20;;;;;;5952531;28;20058;-55
2022/09/28 10:36:51;;;;;;;0.30;0.10;;;23.60;52.10;;;;;;5965714;28;20051;-56
2022/09/28 10:39:55;;;;;;;2.08;0.30;;;23.60;52.00;;;;;;5991732;28;20051;-50
2022/09/28 10:43:01;;;;;;;0.20;0.10;;;23.60;52.00;;;;;;5948099;28;20054;-55
2022/09/28 10:46:06;;;;;;;0.50;0.17;;;23.20;51.80;;;;;;5988962;28;20063;-55
2022/09/28 10:49:15;;;;;;;0.28;0.20;;;23.60;64.90;;;;;;6028823;28;22562;-53
2022/09/28 10:52:32;;;;;;;0.20;0.20;;;23.60;52.10;;;;;;5993791;28;20066;-53
2022/09/28 10:55:35;;;;;;;0.20;0.17;;;23.50;51.90;;;;;;6007984;28;20166;-49
2022/09/28 10:58:40;;;;;;;0.43;0.15;;;23.60;52.10;;;;;;6025963;28;20054;-55
2022/09/28 11:01:47;;;;;;;1.05;0.15;;;23.10;51.90;;;;;;5999709;28;20051;-55
2022/09/28 11:04:53;;;;;;;0.52;0.20;;;23.60;52.20;;;;;;6029726;28;20374;-53
2022/09/28 11:07:56;;;;;;;0.10;0.10;;;23.60;52.20;;;;;;6023532;28;21503;-55
2022/09/28 11:11:09;;;;;;;0.20;0.10;;;23.60;52.20;;;;;;6020808;28;20134;-53
2022/09/28 11:14:26;;;;;;;0.30;0.20;;;23.60;52.30;;;;;;5985877;28;20071;-51
2022/09/28 11:17:32;;;;;;;0.10;0.10;;;23.60;52.00;;;;;;5986260;28;21476;-54
2022/09/28 11:20:34;;;;;;;0.93;0.30;;;23.80;52.20;;;;;;6004209;28;20161;-54
2022/09/28 11:23:40;;;;;;;0.17;0.10;;;23.80;52.10;;;;;;6000898;28;20059;-54
2022/09/28 11:26:55;;;;;;;0.40;0.20;;;23.60;51.80;;;;;;5997000;28;20067;-53
2022/09/28 11:29:59;;;;;;;0.40;0.28;;;23.60;51.90;;;;;;5995755;28;21489;-54
2022/09/28 11:33:16;;;;;;;0.25;0.10;;;23.60;51.90;;;;;;5998713;28;20057;-56
2022/09/28 11:36:42;;;;;;;0.32;0.17;;;23.30;51.60;;;;;;5989210;28;20055;-57
2022/09/28 11:39:53;;;;;;;0.30;0.10;;;23.60;51.80;;;;;;5996696;28;20089;-56
2022/09/28 11:43:07;;;;;;;0.25;0.10;;;23.60;52.20;;;;;;5974036;28;21050;-56
2022/09/28 11:46:18;;;;;;;0.30;0.20;;;23.90;51.90;;;;;;5998746;28;20055;-56
2022/09/28 11:49:32;;;;;;;0.20;0.20;;;23.60;65.20;;;;;;5981596;28;20106;-55
2022/09/28 11:52:42;;;;;;;1.45;0.28;;;23.60;51.80;;;;;;5973361;28;21039;-56
2022/09/28 11:55:49;;;;;;;0.65;0.20;;;23.40;51.70;;;;;;5929862;28;20058;-53
2022/09/28 11:58:55;;;;;;;0.22;0.15;;;23.70;52.00;;;;;;5923345;28;20055;-56
2022/09/28 12:02:19;;;;;;;0.47;0.30;;;23.40;51.70;;;;;;5865309;28;20065;-57
2022/09/28 12:05:28;;;;;;;0.43;0.30;;;23.60;51.90;;;;;;5879506;28;20054;-57
2022/09/28 12:08:34;;;;;;;0.20;0.20;;;23.40;51.70;;;;;;5899194;28;20260;-56
2022/09/28 12:11:58;;;;;;;0.15;0.10;;;23.50;51.70;;;;;;5899597;28;20062;-57
2022/09/28 12:15:24;;;;;;;0.13;0.10;;;23.70;51.80;;;;;;5909839;28;20061;-55
2022/09/28 12:18:35;;;;;;;0.32;0.30;;;23.60;52.40;;;;;;5851397;28;20050;-57
2022/09/28 12:21:44;;;;;;;0.25;0.20;;;23.60;51.90;;;;;;5912898;28;28078;-56
2022/09/28 12:24:50;;;;;;;0.17;0.17;;;23.30;51.60;;;;;;5919825;28;20046;-57
2022/09/28 12:27:56;;;;;;;0.68;0.30;;;23.40;51.70;;;;;;5918061;28;20046;-56
2022/09/28 12:31:10;;;;;;;0.30;0.15;;;23.60;51.90;;;;;;5906924;28;26952;-56
2022/09/28 12:34:12;;;;;;;0.20;0.10;;;23.50;51.90;;;;;;5876787;28;20089;-57
2022/09/28 12:37:27;;;;;;;0.10;0.10;;;23.40;51.80;;;;;;5892719;28;20054;-59
2022/09/28 12:40:36;;;;;;;0.10;0.10;;;23.70;52.00;;;;;;5904934;28;20135;-60
2022/09/28 12:43:56;;;;;;;0.50;0.22;;;23.50;51.80;;;;;;5891289;28;24600;-60
2022/09/28 12:47:18;;;;;;;0.22;0.10;;;23.30;51.50;;;;;;5912783;28;20055;-60
2022/09/28 12:50:26;;;;;;;0.20;0.13;;;23.50;51.60;;;;;;5896528;28;20137;-57
2022/09/28 12:54:01;;;;;;;0.20;0.10;;;23.50;51.50;;;;;;5923646;28;20050;-59
2022/09/28 12:57:23;;;;;;;0.30;0.20;;;23.50;51.30;;;;;;5943663;28;20494;-59
2022/09/28 13:00:31;;;;;;;0.38;0.10;;;23.20;51.70;;;;;;5920510;28;42735;-58
2022/09/28 13:03:59;;;;;;;0.43;0.10;;;23.60;51.30;;;;;;5896339;28;20085;-59
2022/09/28 13:07:05;;;;;;;0.20;0.10;;;23.50;51.00;;;;;;5905528;28;22432;-59
2022/09/28 13:10:15;;;;;;;0.38;0.10;;;23.60;51.10;;;;;;5942490;28;20411;-58
2022/09/28 13:13:33;;;;;;;0.20;0.20;;;23.60;51.00;;;;;;5932962;28;20086;-57
2022/09/28 13:16:41;;;;;;;0.10;0.10;;;23.60;50.90;;;;;;5935855;28;20069;-58
2022/09/28 13:19:51;;;;;;;0.55;0.10;;;23.50;50.90;;;;;;5965283;28;21254;-59
2022/09/28 13:23:05;;;;;;;0.10;0.10;;;23.70;51.30;;;;;;5952199;28;25343;-59
2022/09/28 13:26:14;;;;;;;0.13;0.13;;;23.30;50.70;;;;;;5961197;28;20051;-59
2022/09/28 13:29:18;;;;;;;0.65;0.10;;;23.50;50.80;;;;;;5927346;28;20379;-51
2022/09/28 13:32:23;;;;;;;0.10;0.10;;;23.40;50.80;;;;;;5919932;28;20824;-54
2022/09/28 13:35:24;;;;;;;0.40;0.10;;;23.30;50.70;;;;;;5912735;28;20038;-58
2022/09/28 13:38:49;;;;;;;0.17;0.10;;;23.40;50.70;;;;;;5927128;28;20995;-52
2022/09/28 13:41:53;;;;;;;0.00;0.00;;;23.60;50.80;;;;;;5943179;28;20047;-56
2022/09/28 13:45:16;;;;;;;0.35;0.20;;;23.50;50.70;;;;;;5931240;28;20055;-58
2022/09/28 13:48:22;;;;;;;0.30;0.13;;;23.60;50.90;;;;;;5950947;28;20075;-56
2022/09/28 13:51:37;;;;;;;0.10;0.10;;;23.50;50.70;;;;;;5958688;28;20051;-57
2022/09/28 13:54:56;;;;;;;0.35;0.10;;;23.50;50.70;;;;;;5941243;28;20054;-54
2022/09/28 13:58:03;;;;;;;0.20;0.20;;;23.60;50.70;;;;;;5950070;28;20143;-56
2022/09/28 14:01:09;;;;;;;0.20;0.20;;;23.40;50.60;;;;;;5953756;28;20058;-57
2022/09/28 14:04:17;;;;;;;0.20;0.10;;;23.50;50.60;;;;;;5952011;28;20239;-57
2022/09/28 14:07:22;;;;;;;0.28;0.20;;;23.30;50.40;;;;;;5924896;28;20256;-53
2022/09/28 14:10:46;;;;;;;0.20;0.10;;;23.50;50.40;;;;;;5930385;28;20059;-55
2022/09/28 14:14:06;;;;;;;0.30;0.20;;;23.70;49.80;;;;;;5924680;28;20157;-57
2022/09/28 14:17:37;;;;;;;0.10;0.10;;;23.20;49.80;;;;;;5954924;28;21397;-53
2022/09/28 14:20:46;;;;;;;0.20;0.10;;;23.50;49.80;;;;;;5948638;28;20043;-54
2022/09/28 14:24:10;;;;;;;0.10;0.10;;;23.50;49.80;;;;;;5947320;28;20403;-55
2022/09/28 14:27:34;;;;;;;0.43;0.20;;;23.60;49.80;;;;;;5933295;28;20141;-54
2022/09/28 14:30:52;;;;;;;0.30;0.20;;;23.50;49.60;;;;;;5956472;28;20166;-56
2022/09/28 14:33:57;;;;;;;0.50;0.30;;;23.40;49.70;;;;;;5944937;28;20042;-53
2022/09/28 14:43:57;;;;;;;0.52;0.22;;;23.40;50.00;;;;;;5951741;28;20129;-55
2022/09/28 14:47:25;;;;;;;0.30;0.20;;;23.30;50.10;;;;;;5946873;28;21941;-55
2022/09/28 14:50:28;;;;;;;0.70;0.20;;;23.50;50.40;;;;;;5955452;28;20060;-54
2022/09/28 14:53:37;;;;;;;0.40;0.20;;;23.40;50.40;;;;;;5958206;28;20085;-56
2022/09/28 14:56:42;;;;;;;0.30;0.15;;;23.20;50.40;;;;;;5949144;28;20062;-57
2022/09/28 14:59:45;;;;;;;0.30;0.20;;;23.40;50.60;;;;;;5957255;28;24033;-57
2022/09/28 15:02:51;;;;;;;0.55;0.30;;;23.50;50.70;;;;;;5925906;28;23322;-56
2022/09/28 15:05:53;;;;;;;0.20;0.13;;;23.50;50.80;;;;;;5944496;28;20096;-56
2022/09/28 15:08:55;;;;;;;0.38;0.28;;;23.30;50.80;;;;;;5950727;28;20047;-54
2022/09/28 15:12:00;;;;;;;0.55;0.32;;;23.60;51.00;;;;;;5921804;28;20798;-57
2022/09/28 15:15:07;;;;;;;0.52;0.20;;;23.30;50.80;;;;;;5911017;28;20226;-55
2022/09/28 15:18:26;;;;;;;0.20;0.20;;;23.40;50.90;;;;;;5929119;28;20858;-56
2022/09/28 15:21:34;;;;;;;0.75;0.10;;;23.50;50.90;;;;;;5942962;28;21273;-55
2022/09/28 15:24:37;;;;;;;0.50;0.20;;;23.40;50.80;;;;;;5958565;28;20124;-55
2022/09/28 15:27:40;;;;;;;0.30;0.20;;;23.40;50.80;;;;;;5968153;28;21253;-57
2022/09/28 15:30:42;;;;;;;2.22;0.40;;;23.50;50.90;;;;;;5958023;28;20051;-59
2022/09/28 15:37:07;;;;;;;1.95;0.55;;;23.30;50.70;;;;;;5977831;28;20055;-57
2022/09/28 15:40:13;;;;;;;0.22;0.10;;;23.60;50.80;;;;;;5988792;28;20148;-56
2022/09/28 15:43:25;;;;;;;0.47;0.38;;;23.60;50.80;;;;;;5978616;28;21853;-58
2022/09/28 15:46:33;;;;;;;0.25;0.25;;;23.60;50.70;;;;;;5978828;28;20101;-58
2022/09/28 15:49:40;;;;;;;1.58;0.20;;;23.50;50.70;;;;;;5996867;28;20525;-62
2022/09/28 15:52:46;;;;;;;0.60;0.30;;;23.60;50.90;;;;;;5982109;28;21296;-58
2022/09/28 15:55:50;;;;;;;0.40;0.17;;;23.50;50.90;;;;;;5988241;28;21746;-58
2022/09/28 15:59:07;;;;;;;0.43;0.15;;;23.20;50.50;;;;;;5976316;28;22445;-59
2022/09/28 16:02:11;;;;;;;0.63;0.30;;;23.50;50.20;;;;;;5986845;28;20134;-57
2022/09/28 16:05:34;;;;;;;0.68;0.20;;;23.60;50.20;;;;;;5988916;28;22302;-60
2022/09/28 16:08:38;;;;;;;0.40;0.20;;;23.40;49.60;;;;;;6023042;28;20054;-58
2022/09/28 16:11:40;;;;;;;0.63;0.30;;;23.60;49.70;;;;;;6016085;28;20943;-56
2022/09/28 16:14:46;;;;;;;0.77;0.35;;;23.50;49.40;;;;;;6015773;28;20112;-58
2022/09/28 16:17:51;;;;;;;0.43;0.10;;;23.20;48.90;;;;;;6042176;28;20332;-57
2022/09/28 16:20:55;;;;;;;0.30;0.20;;;23.60;48.90;;;;;;6031733;28;20199;-55
2022/09/28 16:23:57;;;;;;;0.50;0.20;;;23.50;48.70;;;;;;6051824;28;21099;-55
2022/09/28 16:27:01;;;;;;;0.28;0.20;;;23.50;48.60;;;;;;6049362;28;20054;-56
2022/09/28 16:30:15;;;;;;;0.68;0.20;;;23.70;48.70;;;;;;6027092;28;22088;-55
2022/09/28 16:33:27;;;;;;;0.47;0.17;;;23.70;48.50;;;;;;6052279;28;21063;-59
2022/09/28 16:36:42;;;;;;;0.20;0.10;;;23.30;48.20;;;;;;6052637;28;20050;-58
2022/09/28 16:39:47;;;;;;;0.70;0.20;;;23.60;48.30;;;;;;6052788;28;20222;-58